sensor_id;sensor_type;location;lat;lon;timestamp;pressure;altitude;pressure_sealevel;temperature;humidity
40708;BME280;26392;42.696;23.350;2023-04-29T00:00:05;95362.94;;;7.05;100.00
40708;BME280;26392;42.696;23.350;2023-04-29T00:02:31;95361.16;;;6.99;100.00
40708;BME280;26392;42.696;23.350;2023-04-29T00:04:56;95358.31;;;6.93;100.00
40708;BME280;26392;42.696;23.350;2023-04-29T00:07:22;95364.09;;;6.97;100.00
40708;BME280;26392;42.696;23.350;2023-04-29T00:09:48;95360.31;;;6.86;100.00
40708;BME280;26392;42.696;23.350;2023-04-29T00:12:13;95358.75;;;6.79;100.00
40708;BME280;26392;42.696;23.350;2023-04-29T00:14:39;95360.66;;;6.78;100.00
40708;BME280;26392;42.696;23.350;2023-04-29T00:17:04;95369.66;;;6.72;100.00
40708;BME280;26392;42.696;23.350;2023-04-29T00:19:29;95368.03;;;6.71;100.00
40708;BME280;26392;42.696;23.350;2023-04-29T00:21:55;95378.84;;;6.71;100.00
40708;BME280;26392;42.696;23.350;2023-04-29T00:24:20;95371.88;;;6.63;100.00
40708;BME280;26392;42.696;23.350;2023-04-29T00:26:46;95375.44;;;6.64;100.00
40708;BME280;26392;42.696;23.350;2023-04-29T00:29:11;95376.63;;;6.49;100.00
40708;BME280;26392;42.696;23.350;2023-04-29T00:31:37;95374.63;;;6.45;100.00
40708;BME280;26392;42.696;23.350;2023-04-29T00:34:02;95379.94;;;6.52;100.00
40708;BME280;26392;42.696;23.350;2023-04-29T00:36:27;95374.16;;;6.48;100.00
40708;BME280;26392;42.696;23.350;2023-04-29T00:38:53;95380.84;;;6.45;100.00
40708;BME280;26392;42.696;23.350;2023-04-29T00:41:19;95366.13;;;6.41;100.00
40708;BME280;26392;42.696;23.350;2023-04-29T00:43:45;95374.41;;;6.28;100.00
40708;BME280;26392;42.696;23.350;2023-04-29T00:46:10;95367.41;;;6.20;100.00
40708;BME280;26392;42.696;23.350;2023-04-29T00:48:36;95368.47;;;6.19;100.00
40708;BME280;26392;42.696;23.350;2023-04-29T00:51:02;95367.41;;;6.20;100.00
40708;BME280;26392;42.696;23.350;2023-04-29T00:53:29;95364.56;;;6.15;100.00
40708;BME280;26392;42.696;23.350;2023-04-29T00:55:55;95354.66;;;6.09;100.00
40708;BME280;26392;42.696;23.350;2023-04-29T00:58:20;95353.06;;;6.20;100.00
40708;BME280;26392;42.696;23.350;2023-04-29T01:00:47;95337.59;;;6.09;100.00
40708;BME280;26392;42.696;23.350;2023-04-29T01:03:14;95327.69;;;6.02;100.00
40708;BME280;26392;42.696;23.350;2023-04-29T01:05:39;95335.94;;;6.08;100.00
40708;BME280;26392;42.696;23.350;2023-04-29T01:10:53;95346.31;;;6.11;100.00
40708;BME280;26392;42.696;23.350;2023-04-29T01:13:41;95342.84;;;6.03;100.00
40708;BME280;26392;42.696;23.350;2023-04-29T01:16:10;95340.38;;;6.02;100.00
40708;BME280;26392;42.696;23.350;2023-04-29T01:18:45;95334.53;;;6.05;100.00
40708;BME280;26392;42.696;23.350;2023-04-29T01:21:10;95342.09;;;5.96;100.00
40708;BME280;26392;42.696;23.350;2023-04-29T01:23:36;95336.00;;;5.82;100.00
40708;BME280;26392;42.696;23.350;2023-04-29T01:26:01;95336.97;;;5.70;100.00
40708;BME280;26392;42.696;23.350;2023-04-29T01:31:35;95331.75;;;5.68;100.00
40708;BME280;26392;42.696;23.350;2023-04-29T01:34:18;95328.97;;;5.56;100.00
40708;BME280;26392;42.696;23.350;2023-04-29T01:37:05;95339.88;;;5.50;100.00
40708;BME280;26392;42.696;23.350;2023-04-29T01:39:45;95336.38;;;5.43;100.00
40708;BME280;26392;42.696;23.350;2023-04-29T01:42:23;95338.34;;;5.35;100.00
40708;BME280;26392;42.696;23.350;2023-04-29T01:44:54;95344.13;;;5.39;100.00
40708;BME280;26392;42.696;23.350;2023-04-29T01:47:20;95344.56;;;5.36;100.00
40708;BME280;26392;42.696;23.350;2023-04-29T01:49:45;95332.88;;;5.42;100.00
40708;BME280;26392;42.696;23.350;2023-04-29T01:52:11;95333.47;;;5.44;100.00
40708;BME280;26392;42.696;23.350;2023-04-29T01:54:37;95332.13;;;5.35;100.00
40708;BME280;26392;42.696;23.350;2023-04-29T01:57:03;95332.13;;;5.35;100.00
40708;BME280;26392;42.696;23.350;2023-04-29T01:59:28;95329.47;;;5.28;100.00
40708;BME280;26392;42.696;23.350;2023-04-29T02:01:54;95326.22;;;5.20;100.00
40708;BME280;26392;42.696;23.350;2023-04-29T02:04:21;95338.56;;;5.34;100.00
40708;BME280;26392;42.696;23.350;2023-04-29T02:06:46;95339.88;;;5.25;100.00
40708;BME280;26392;42.696;23.350;2023-04-29T02:09:12;95336.13;;;5.26;100.00
40708;BME280;26392;42.696;23.350;2023-04-29T02:11:37;95335.53;;;5.24;100.00
40708;BME280;26392;42.696;23.350;2023-04-29T02:14:02;95348.19;;;5.23;100.00
40708;BME280;26392;42.696;23.350;2023-04-29T02:16:28;95326.56;;;5.05;100.00
40708;BME280;26392;42.696;23.350;2023-04-29T02:18:53;95343.34;;;5.07;100.00
40708;BME280;26392;42.696;23.350;2023-04-29T02:21:18;95330.91;;;5.06;100.00
40708;BME280;26392;42.696;23.350;2023-04-29T02:23:44;95337.94;;;5.07;100.00
40708;BME280;26392;42.696;23.350;2023-04-29T02:26:09;95331.16;;;4.98;100.00
40708;BME280;26392;42.696;23.350;2023-04-29T02:28:35;95324.78;;;4.92;100.00
40708;BME280;26392;42.696;23.350;2023-04-29T02:31:01;95337.38;;;4.98;100.00
40708;BME280;26392;42.696;23.350;2023-04-29T02:33:26;95331.00;;;4.92;100.00
40708;BME280;26392;42.696;23.350;2023-04-29T02:35:52;95331.59;;;4.94;100.00
40708;BME280;26392;42.696;23.350;2023-04-29T02:38:17;95343.72;;;4.85;100.00
40708;BME280;26392;42.696;23.350;2023-04-29T02:40:44;95337.34;;;4.73;100.00
40708;BME280;26392;42.696;23.350;2023-04-29T02:43:10;95337.78;;;4.70;100.00
40708;BME280;26392;42.696;23.350;2023-04-29T02:45:36;95343.00;;;4.71;100.00
40708;BME280;26392;42.696;23.350;2023-04-29T02:48:03;95333.91;;;4.66;100.00
40708;BME280;26392;42.696;23.350;2023-04-29T02:50:28;95340.56;;;4.63;100.00
40708;BME280;26392;42.696;23.350;2023-04-29T02:52:53;95341.81;;;4.61;100.00
40708;BME280;26392;42.696;23.350;2023-04-29T02:55:19;95332.22;;;4.65;100.00
40708;BME280;26392;42.696;23.350;2023-04-29T02:57:44;95326.44;;;4.61;100.00
40708;BME280;26392;42.696;23.350;2023-04-29T03:00:10;95359.00;;;4.66;100.00
40708;BME280;26392;42.696;23.350;2023-04-29T03:02:36;95369.59;;;4.68;100.00
40708;BME280;26392;42.696;23.350;2023-04-29T03:05:02;95370.22;;;4.63;100.00
40708;BME280;26392;42.696;23.350;2023-04-29T03:07:27;95365.47;;;4.59;100.00
40708;BME280;26392;42.696;23.350;2023-04-29T03:09:54;95358.88;;;4.55;100.00
40708;BME280;26392;42.696;23.350;2023-04-29T03:12:20;95352.41;;;4.56;100.00
40708;BME280;26392;42.696;23.350;2023-04-29T03:14:45;95356.59;;;4.52;100.00
40708;BME280;26392;42.696;23.350;2023-04-29T03:17:11;95351.66;;;4.48;100.00
40708;BME280;26392;42.696;23.350;2023-04-29T03:19:37;95356.38;;;4.53;100.00
40708;BME280;26392;42.696;23.350;2023-04-29T03:22:02;95361.78;;;4.53;100.00
40708;BME280;26392;42.696;23.350;2023-04-29T03:24:27;95362.41;;;4.55;100.00
40708;BME280;26392;42.696;23.350;2023-04-29T03:26:53;95370.88;;;4.59;100.00
40708;BME280;26392;42.696;23.350;2023-04-29T03:29:19;95375.25;;;4.60;100.00
40708;BME280;26392;42.696;23.350;2023-04-29T03:31:44;95379.97;;;4.64;100.00
40708;BME280;26392;42.696;23.350;2023-04-29T03:34:10;95383.66;;;4.77;100.00
40708;BME280;26392;42.696;23.350;2023-04-29T03:36:35;95387.38;;;4.82;100.00
40708;BME280;26392;42.696;23.350;2023-04-29T03:39:01;95391.28;;;4.86;100.00
40708;BME280;26392;42.696;23.350;2023-04-29T03:41:26;95392.28;;;4.92;100.00
40708;BME280;26392;42.696;23.350;2023-04-29T03:43:52;95382.22;;;5.06;100.00
40708;BME280;26392;42.696;23.350;2023-04-29T03:46:19;95400.41;;;5.17;100.00
40708;BME280;26392;42.696;23.350;2023-04-29T03:48:44;95394.00;;;5.11;100.00
40708;BME280;26392;42.696;23.350;2023-04-29T03:51:10;95390.25;;;5.12;100.00
40708;BME280;26392;42.696;23.350;2023-04-29T03:53:35;95382.31;;;5.18;100.00
40708;BME280;26392;42.696;23.350;2023-04-29T03:56:01;95393.25;;;5.29;100.00
40708;BME280;26392;42.696;23.350;2023-04-29T03:58:27;95376.16;;;5.35;100.00
40708;BME280;26392;42.696;23.350;2023-04-29T04:00:53;95372.34;;;5.43;100.00
40708;BME280;26392;42.696;23.350;2023-04-29T04:03:19;95369.44;;;5.45;100.00
40708;BME280;26392;42.696;23.350;2023-04-29T04:05:44;95371.84;;;5.53;100.00
40708;BME280;26392;42.696;23.350;2023-04-29T04:08:10;95367.72;;;5.50;100.00
40708;BME280;26392;42.696;23.350;2023-04-29T04:10:35;95379.88;;;5.59;100.00
40708;BME280;26392;42.696;23.350;2023-04-29T04:13:01;95393.50;;;5.71;100.00
40708;BME280;26392;42.696;23.350;2023-04-29T04:15:26;95396.16;;;5.78;100.00
40708;BME280;26392;42.696;23.350;2023-04-29T04:17:52;95397.28;;;5.89;100.00
40708;BME280;26392;42.696;23.350;2023-04-29T04:20:17;95389.28;;;6.00;100.00
40708;BME280;26392;42.696;23.350;2023-04-29T04:22:42;95393.72;;;5.95;100.00
40708;BME280;26392;42.696;23.350;2023-04-29T04:25:08;95383.34;;;6.10;100.00
40708;BME280;26392;42.696;23.350;2023-04-29T04:27:34;95386.56;;;6.19;100.00
40708;BME280;26392;42.696;23.350;2023-04-29T04:29:59;95384.84;;;6.24;100.00
40708;BME280;26392;42.696;23.350;2023-04-29T04:32:25;95377.84;;;6.35;100.00
40708;BME280;26392;42.696;23.350;2023-04-29T04:34:50;95379.44;;;6.43;100.00
40708;BME280;26392;42.696;23.350;2023-04-29T04:37:16;95368.78;;;6.60;100.00
40708;BME280;26392;42.696;23.350;2023-04-29T04:39:41;95380.31;;;6.85;100.00
40708;BME280;26392;42.696;23.350;2023-04-29T04:42:07;95387.91;;;6.95;100.00
40708;BME280;26392;42.696;23.350;2023-04-29T04:44:32;95398.97;;;7.05;100.00
40708;BME280;26392;42.696;23.350;2023-04-29T04:46:58;95389.91;;;7.00;100.00
40708;BME280;26392;42.696;23.350;2023-04-29T04:49:26;95397.56;;;7.03;100.00
40708;BME280;26392;42.696;23.350;2023-04-29T04:51:52;95395.00;;;7.08;99.83
40708;BME280;26392;42.696;23.350;2023-04-29T04:54:18;95389.81;;;7.06;97.58
40708;BME280;26392;42.696;23.350;2023-04-29T04:56:43;95396.66;;;6.79;98.58
40708;BME280;26392;42.696;23.350;2023-04-29T04:59:09;95392.94;;;6.91;100.00
40708;BME280;26392;42.696;23.350;2023-04-29T05:01:35;95389.66;;;6.89;99.23
40708;BME280;26392;42.696;23.350;2023-04-29T05:04:00;95371.09;;;7.16;97.54
40708;BME280;26392;42.696;23.350;2023-04-29T05:06:26;95370.91;;;7.42;95.53
40708;BME280;26392;42.696;23.350;2023-04-29T05:08:52;95367.03;;;7.61;91.33
40708;BME280;26392;42.696;23.350;2023-04-29T05:11:18;95362.34;;;7.56;91.19
40708;BME280;26392;42.696;23.350;2023-04-29T05:13:45;95371.72;;;7.30;91.75
40708;BME280;26392;42.696;23.350;2023-04-29T05:16:11;95369.25;;;7.40;92.02
40708;BME280;26392;42.696;23.350;2023-04-29T05:18:36;95361.03;;;7.71;90.58
40708;BME280;26392;42.696;23.350;2023-04-29T05:21:02;95353.81;;;8.00;86.61
40708;BME280;26392;42.696;23.350;2023-04-29T05:23:27;95341.19;;;8.05;85.29
40708;BME280;26392;42.696;23.350;2023-04-29T05:25:53;95343.41;;;8.08;85.40
40708;BME280;26392;42.696;23.350;2023-04-29T05:28:18;95349.66;;;8.21;85.59
40708;BME280;26392;42.696;23.350;2023-04-29T05:30:44;95351.91;;;8.12;86.82
40708;BME280;26392;42.696;23.350;2023-04-29T05:33:10;95358.59;;;8.45;86.35
40708;BME280;26392;42.696;23.350;2023-04-29T05:35:36;95353.97;;;8.45;85.29
40708;BME280;26392;42.696;23.350;2023-04-29T05:38:02;95350.16;;;8.87;82.43
40708;BME280;26392;42.696;23.350;2023-04-29T05:40:27;95354.50;;;9.16;79.63
40708;BME280;26392;42.696;23.350;2023-04-29T05:42:53;95350.81;;;9.23;76.99
40708;BME280;26392;42.696;23.350;2023-04-29T05:45:19;95333.81;;;9.32;75.68
40708;BME280;26392;42.696;23.350;2023-04-29T05:47:44;95341.09;;;9.44;75.20
40708;BME280;26392;42.696;23.350;2023-04-29T05:50:10;95345.94;;;9.75;73.75
40708;BME280;26392;42.696;23.350;2023-04-29T05:52:36;95345.16;;;9.97;72.04
40708;BME280;26392;42.696;23.350;2023-04-29T05:55:01;95361.16;;;9.93;70.84
40708;BME280;26392;42.696;23.350;2023-04-29T05:57:27;95356.03;;;9.97;70.72
40708;BME280;26392;42.696;23.350;2023-04-29T05:59:52;95351.25;;;10.04;69.96
40708;BME280;26392;42.696;23.350;2023-04-29T06:02:19;95355.78;;;10.15;68.75
40708;BME280;26392;42.696;23.350;2023-04-29T06:04:45;95356.88;;;10.36;67.56
40708;BME280;26392;42.696;23.350;2023-04-29T06:07:12;95357.66;;;10.32;66.79
40708;BME280;26392;42.696;23.350;2023-04-29T06:09:38;95343.47;;;10.13;67.00
40708;BME280;26392;42.696;23.350;2023-04-29T06:12:04;95347.06;;;10.35;66.27
40708;BME280;26392;42.696;23.350;2023-04-29T06:14:30;95340.44;;;10.48;65.19
40708;BME280;26392;42.696;23.350;2023-04-29T06:16:56;95333.66;;;10.28;64.93
40708;BME280;26392;42.696;23.350;2023-04-29T06:19:21;95344.50;;;10.45;64.65
40708;BME280;26392;42.696;23.350;2023-04-29T06:21:46;95351.94;;;10.55;64.75
40708;BME280;26392;42.696;23.350;2023-04-29T06:24:12;95346.34;;;10.62;64.02
40708;BME280;26392;42.696;23.350;2023-04-29T06:26:37;95357.47;;;10.60;63.32
40708;BME280;26392;42.696;23.350;2023-04-29T06:29:03;95353.28;;;10.74;64.57
40708;BME280;26392;42.696;23.350;2023-04-29T06:31:28;95356.06;;;10.58;63.72
40708;BME280;26392;42.696;23.350;2023-04-29T06:33:53;95350.63;;;10.58;64.03
40708;BME280;26392;42.696;23.350;2023-04-29T06:36:19;95348.03;;;10.46;64.06
40708;BME280;26392;42.696;23.350;2023-04-29T06:38:44;95348.41;;;10.55;63.92
40708;BME280;26392;42.696;23.350;2023-04-29T06:41:10;95346.19;;;10.51;66.99
40708;BME280;26392;42.696;23.350;2023-04-29T06:43:35;95338.44;;;10.87;66.26
40708;BME280;26392;42.696;23.350;2023-04-29T06:46:01;95339.22;;;11.10;62.77
40708;BME280;26392;42.696;23.350;2023-04-29T06:48:26;95340.72;;;10.95;63.32
40708;BME280;26392;42.696;23.350;2023-04-29T06:50:54;95332.97;;;11.14;64.22
40708;BME280;26392;42.696;23.350;2023-04-29T06:53:20;95340.13;;;11.20;63.36
40708;BME280;26392;42.696;23.350;2023-04-29T06:55:45;95339.16;;;11.37;63.40
40708;BME280;26392;42.696;23.350;2023-04-29T06:58:12;95337.75;;;11.61;63.58
40708;BME280;26392;42.696;23.350;2023-04-29T07:00:38;95328.34;;;11.79;63.42
40708;BME280;26392;42.696;23.350;2023-04-29T07:03:03;95332.47;;;11.82;62.08
40708;BME280;26392;42.696;23.350;2023-04-29T07:05:29;95334.78;;;12.00;61.78
40708;BME280;26392;42.696;23.350;2023-04-29T07:07:54;95327.81;;;12.25;60.79
40708;BME280;26392;42.696;23.350;2023-04-29T07:10:20;95317.22;;;12.34;60.31
40708;BME280;26392;42.696;23.350;2023-04-29T07:12:45;95319.16;;;12.38;59.97
40708;BME280;26392;42.696;23.350;2023-04-29T07:15:11;95326.59;;;12.53;60.53
40708;BME280;26392;42.696;23.350;2023-04-29T07:17:36;95324.47;;;12.70;60.08
40708;BME280;26392;42.696;23.350;2023-04-29T07:20:02;95321.25;;;12.99;59.20
40708;BME280;26392;42.696;23.350;2023-04-29T07:22:28;95332.53;;;13.23;58.55
40708;BME280;26392;42.696;23.350;2023-04-29T07:24:53;95321.63;;;13.28;58.59
40708;BME280;26392;42.696;23.350;2023-04-29T07:27:19;95324.91;;;13.35;57.30
40708;BME280;26392;42.696;23.350;2023-04-29T07:29:45;95322.75;;;13.48;56.60
40708;BME280;26392;42.696;23.350;2023-04-29T07:32:10;95327.88;;;13.24;56.50
40708;BME280;26392;42.696;23.350;2023-04-29T07:34:36;95335.59;;;13.42;57.02
40708;BME280;26392;42.696;23.350;2023-04-29T07:37:02;95317.00;;;13.70;57.10
40708;BME280;26392;42.696;23.350;2023-04-29T07:39:27;95318.03;;;13.94;56.24
40708;BME280;26392;42.696;23.350;2023-04-29T07:41:54;95327.06;;;14.10;53.01
40708;BME280;26392;42.696;23.350;2023-04-29T07:44:19;95328.38;;;14.33;54.07
40708;BME280;26392;42.696;23.350;2023-04-29T07:46:45;95319.59;;;14.36;50.29
40708;BME280;26392;42.696;23.350;2023-04-29T07:49:10;95315.22;;;14.35;50.59
40708;BME280;26392;42.696;23.350;2023-04-29T07:51:36;95311.91;;;14.38;50.47
40708;BME280;26392;42.696;23.350;2023-04-29T07:54:04;95307.78;;;14.46;50.77
40708;BME280;26392;42.696;23.350;2023-04-29T07:56:30;95302.56;;;14.44;50.06
40708;BME280;26392;42.696;23.350;2023-04-29T07:58:55;95305.63;;;14.38;50.29
40708;BME280;26392;42.696;23.350;2023-04-29T08:01:21;95298.31;;;14.07;50.29
40708;BME280;26392;42.696;23.350;2023-04-29T08:03:46;95298.00;;;14.19;51.13
40708;BME280;26392;42.696;23.350;2023-04-29T08:06:12;95301.91;;;13.98;50.83
40708;BME280;26392;42.696;23.350;2023-04-29T08:08:37;95302.16;;;14.01;50.96
40708;BME280;26392;42.696;23.350;2023-04-29T08:11:03;95292.84;;;14.02;51.14
40708;BME280;26392;42.696;23.350;2023-04-29T08:13:28;95299.63;;;14.25;50.41
40708;BME280;26392;42.696;23.350;2023-04-29T08:15:54;95292.16;;;14.46;50.33
40708;BME280;26392;42.696;23.350;2023-04-29T08:18:19;95281.91;;;14.77;49.25
40708;BME280;26392;42.696;23.350;2023-04-29T08:20:46;95279.88;;;14.98;49.23
40708;BME280;26392;42.696;23.350;2023-04-29T08:23:12;95281.00;;;14.92;46.92
40708;BME280;26392;42.696;23.350;2023-04-29T08:25:40;95280.28;;;14.71;47.21
40708;BME280;26392;42.696;23.350;2023-04-29T08:28:06;95284.88;;;14.81;46.64
40708;BME280;26392;42.696;23.350;2023-04-29T08:30:32;95273.84;;;14.96;46.11
40708;BME280;26392;42.696;23.350;2023-04-29T08:32:57;95281.31;;;15.30;45.63
40708;BME280;26392;42.696;23.350;2023-04-29T08:35:23;95289.38;;;15.51;45.26
40708;BME280;26392;42.696;23.350;2023-04-29T08:37:48;95283.97;;;15.80;45.34
40708;BME280;26392;42.696;23.350;2023-04-29T08:40:14;95285.56;;;16.10;42.78
40708;BME280;26392;42.696;23.350;2023-04-29T08:42:39;95284.72;;;15.85;43.15
40708;BME280;26392;42.696;23.350;2023-04-29T08:45:05;95282.34;;;15.74;43.50
40708;BME280;26392;42.696;23.350;2023-04-29T08:47:32;95279.13;;;15.96;44.30
40708;BME280;26392;42.696;23.350;2023-04-29T08:50:03;95274.06;;;16.08;42.85
40708;BME280;26392;42.696;23.350;2023-04-29T08:52:32;95269.38;;;16.32;42.47
40708;BME280;26392;42.696;23.350;2023-04-29T08:54:59;95272.19;;;16.51;41.86
40708;BME280;26392;42.696;23.350;2023-04-29T08:57:27;95267.72;;;16.80;41.52
40708;BME280;26392;42.696;23.350;2023-04-29T08:59:54;95257.94;;;17.11;41.17
40708;BME280;26392;42.696;23.350;2023-04-29T09:02:21;95259.25;;;17.33;39.94
40708;BME280;26392;42.696;23.350;2023-04-29T09:04:54;95261.13;;;17.18;40.43
40708;BME280;26392;42.696;23.350;2023-04-29T09:07:25;95257.31;;;17.33;40.48
40708;BME280;26392;42.696;23.350;2023-04-29T09:09:51;95250.91;;;17.38;39.67
40708;BME280;26392;42.696;23.350;2023-04-29T09:12:17;95240.50;;;17.35;39.81
40708;BME280;26392;42.696;23.350;2023-04-29T09:14:43;95248.34;;;17.09;39.06
40708;BME280;26392;42.696;23.350;2023-04-29T09:17:08;95245.19;;;17.67;38.76
40708;BME280;26392;42.696;23.350;2023-04-29T09:19:35;95242.13;;;17.87;37.73
40708;BME280;26392;42.696;23.350;2023-04-29T09:22:04;95241.41;;;17.82;37.81
40708;BME280;26392;42.696;23.350;2023-04-29T09:24:31;95244.72;;;18.11;37.57
40708;BME280;26392;42.696;23.350;2023-04-29T09:26:58;95233.06;;;18.15;37.57
40708;BME280;26392;42.696;23.350;2023-04-29T09:29:23;95237.88;;;18.23;37.01
40708;BME280;26392;42.696;23.350;2023-04-29T09:31:50;95226.13;;;18.17;37.08
40708;BME280;26392;42.696;23.350;2023-04-29T09:34:29;95219.41;;;18.09;36.78
40708;BME280;26392;42.696;23.350;2023-04-29T09:36:55;95220.31;;;18.19;36.90
40708;BME280;26392;42.696;23.350;2023-04-29T09:39:23;95211.88;;;18.29;37.04
40708;BME280;26392;42.696;23.350;2023-04-29T09:44:15;95214.69;;;18.79;36.26
40708;BME280;26392;42.696;23.350;2023-04-29T09:46:40;95210.69;;;18.99;35.66
40708;BME280;26392;42.696;23.350;2023-04-29T09:49:30;95201.16;;;19.28;35.71
40708;BME280;26392;42.696;23.350;2023-04-29T09:52:01;95206.50;;;19.24;35.61
40708;BME280;26392;42.696;23.350;2023-04-29T09:54:29;95200.53;;;19.31;35.17
40708;BME280;26392;42.696;23.350;2023-04-29T09:56:59;95194.19;;;19.30;34.83
40708;BME280;26392;42.696;23.350;2023-04-29T09:59:26;95191.31;;;19.35;33.99
40708;BME280;26392;42.696;23.350;2023-04-29T10:01:56;95195.69;;;18.77;34.30
40708;BME280;26392;42.696;23.350;2023-04-29T10:04:24;95187.88;;;18.93;34.07
40708;BME280;26392;42.696;23.350;2023-04-29T10:06:55;95184.50;;;18.96;35.24
40708;BME280;26392;42.696;23.350;2023-04-29T10:09:22;95181.00;;;18.41;35.81
40708;BME280;26392;42.696;23.350;2023-04-29T10:11:49;95176.28;;;18.55;36.41
40708;BME280;26392;42.696;23.350;2023-04-29T10:14:18;95181.72;;;18.46;36.20
40708;BME280;26392;42.696;23.350;2023-04-29T10:16:58;95172.19;;;18.52;35.76
40708;BME280;26392;42.696;23.350;2023-04-29T10:22:11;95175.38;;;18.96;36.06
40708;BME280;26392;42.696;23.350;2023-04-29T10:24:41;95165.94;;;18.61;36.99
40708;BME280;26392;42.696;23.350;2023-04-29T10:27:08;95156.38;;;18.94;36.46
40708;BME280;26392;42.696;23.350;2023-04-29T10:29:37;95156.63;;;19.29;36.21
40708;BME280;26392;42.696;23.350;2023-04-29T10:32:03;95152.28;;;19.59;34.28
40708;BME280;26392;42.696;23.350;2023-04-29T10:34:32;95154.38;;;19.76;32.92
40708;BME280;26392;42.696;23.350;2023-04-29T10:36:59;95147.22;;;19.75;32.94
40708;BME280;26392;42.696;23.350;2023-04-29T10:40:04;95154.50;;;19.71;32.71
40708;BME280;26392;42.696;23.350;2023-04-29T10:42:53;95148.19;;;19.79;33.21
40708;BME280;26392;42.696;23.350;2023-04-29T10:53:09;95151.19;;;19.92;32.50
40708;BME280;26392;42.696;23.350;2023-04-29T10:55:36;95155.47;;;20.06;33.39
40708;BME280;26392;42.696;23.350;2023-04-29T10:58:03;95146.00;;;19.99;33.88
40708;BME280;26392;42.696;23.350;2023-04-29T11:02:58;95144.22;;;20.43;32.32
40708;BME280;26392;42.696;23.350;2023-04-29T11:05:34;95134.94;;;20.47;32.28
40708;BME280;26392;42.696;23.350;2023-04-29T11:08:13;95140.28;;;20.44;32.19
40708;BME280;26392;42.696;23.350;2023-04-29T11:10:47;95143.50;;;20.20;31.48
40708;BME280;26392;42.696;23.350;2023-04-29T11:13:25;95133.84;;;20.00;28.96
40708;BME280;26392;42.696;23.350;2023-04-29T11:15:52;95129.31;;;19.73;28.67
40708;BME280;26392;42.696;23.350;2023-04-29T11:18:18;95130.78;;;19.48;28.69
40708;BME280;26392;42.696;23.350;2023-04-29T11:23:34;95127.44;;;19.37;29.06
40708;BME280;26392;42.696;23.350;2023-04-29T11:26:00;95135.19;;;19.26;29.82
40708;BME280;26392;42.696;23.350;2023-04-29T11:28:30;95140.28;;;19.33;30.08
40708;BME280;26392;42.696;23.350;2023-04-29T11:30:59;95130.41;;;19.18;30.31
40708;BME280;26392;42.696;23.350;2023-04-29T11:33:26;95127.41;;;19.28;30.92
40708;BME280;26392;42.696;23.350;2023-04-29T11:35:53;95129.28;;;19.19;31.63
40708;BME280;26392;42.696;23.350;2023-04-29T11:38:26;95129.41;;;19.36;32.80
40708;BME280;26392;42.696;23.350;2023-04-29T11:40:54;95119.53;;;19.66;32.00
40708;BME280;26392;42.696;23.350;2023-04-29T11:43:19;95121.25;;;19.62;31.28
40708;BME280;26392;42.696;23.350;2023-04-29T11:45:46;95118.59;;;19.26;31.37
40708;BME280;26392;42.696;23.350;2023-04-29T11:48:22;95116.94;;;19.16;31.42
40708;BME280;26392;42.696;23.350;2023-04-29T11:50:53;95125.84;;;19.13;30.99
40708;BME280;26392;42.696;23.350;2023-04-29T11:53:21;95133.03;;;19.00;30.97
40708;BME280;26392;42.696;23.350;2023-04-29T11:55:48;95123.50;;;18.84;31.15
40708;BME280;26392;42.696;23.350;2023-04-29T11:58:14;95125.44;;;18.70;31.89
40708;BME280;26392;42.696;23.350;2023-04-29T12:00:42;95123.06;;;18.54;33.12
40708;BME280;26392;42.696;23.350;2023-04-29T12:03:13;95118.38;;;18.41;33.27
40708;BME280;26392;42.696;23.350;2023-04-29T12:05:45;95108.88;;;18.33;33.39
40708;BME280;26392;42.696;23.350;2023-04-29T12:08:11;95120.63;;;18.39;33.48
40708;BME280;26392;42.696;23.350;2023-04-29T12:10:36;95117.69;;;18.36;33.48
40708;BME280;26392;42.696;23.350;2023-04-29T12:13:02;95117.66;;;18.49;33.48
40708;BME280;26392;42.696;23.350;2023-04-29T12:15:29;95117.41;;;18.60;33.56
40708;BME280;26392;42.696;23.350;2023-04-29T12:17:55;95105.13;;;18.80;33.24
40708;BME280;26392;42.696;23.350;2023-04-29T12:20:21;95104.88;;;18.90;32.89
40708;BME280;26392;42.696;23.350;2023-04-29T12:22:46;95103.75;;;19.13;32.73
40708;BME280;26392;42.696;23.350;2023-04-29T12:25:14;95107.59;;;19.35;32.27
40708;BME280;26392;42.696;23.350;2023-04-29T12:27:40;95104.66;;;19.31;31.98
40708;BME280;26392;42.696;23.350;2023-04-29T12:30:07;95090.63;;;19.19;32.01
40708;BME280;26392;42.696;23.350;2023-04-29T12:32:36;95083.81;;;18.94;32.42
40708;BME280;26392;42.696;23.350;2023-04-29T12:35:02;95090.75;;;18.91;33.14
40708;BME280;26392;42.696;23.350;2023-04-29T12:37:28;95092.50;;;19.10;33.55
40708;BME280;26392;42.696;23.350;2023-04-29T12:40:12;95089.94;;;19.36;33.14
40708;BME280;26392;42.696;23.350;2023-04-29T12:42:40;95086.66;;;19.34;33.65
40708;BME280;26392;42.696;23.350;2023-04-29T12:45:05;95083.03;;;19.25;33.73
40708;BME280;26392;42.696;23.350;2023-04-29T12:47:31;95087.47;;;19.34;33.84
40708;BME280;26392;42.696;23.350;2023-04-29T12:49:59;95087.06;;;19.50;34.51
40708;BME280;26392;42.696;23.350;2023-04-29T12:52:25;95086.56;;;19.48;33.76
40708;BME280;26392;42.696;23.350;2023-04-29T12:54:50;95086.97;;;19.63;34.14
40708;BME280;26392;42.696;23.350;2023-04-29T12:57:16;95081.19;;;19.74;33.34
40708;BME280;26392;42.696;23.350;2023-04-29T12:59:41;95085.22;;;19.67;33.51
40708;BME280;26392;42.696;23.350;2023-04-29T13:02:06;95082.16;;;19.69;33.51
40708;BME280;26392;42.696;23.350;2023-04-29T13:04:32;95082.97;;;19.70;33.92
40708;BME280;26392;42.696;23.350;2023-04-29T13:06:57;95075.25;;;19.58;33.40
40708;BME280;26392;42.696;23.350;2023-04-29T13:09:26;95081.84;;;19.48;33.84
40708;BME280;26392;42.696;23.350;2023-04-29T13:11:52;95083.03;;;19.25;33.96